Time;durP1;ratioP1;P1;durP2;ratioP2;P2;SDS_P1;SDS_P2;PMS_P1;PMS_P2;Temp;Humidity;BMP_temperature;BMP_pressure;BME280_temperature;BME280_humidity;BME280_pressure;Samples;Min_cycle;Max_cycle;Signal;HPM_P1;HPM_P2
2023/11/03 05:02:20;;;;;;;2.17;0.85;;;9.30;99.90;;;;;;4979874;23;20248;-72
2023/11/03 05:04:46;;;;;;;2.45;0.77;;;9.20;99.90;;;;;;4850556;29;20216;-73
2023/11/03 05:07:14;;;;;;;2.92;0.90;;;9.20;99.90;;;;;;4852758;29;20237;-74
2023/11/03 05:09:40;;;;;;;0.80;0.80;;;9.20;99.90;;;;;;4859622;29;20256;-73
2023/11/03 05:12:08;;;;;;;1.50;0.98;;;9.20;99.90;;;;;;4851686;29;20232;-74
2023/11/03 05:14:36;;;;;;;3.70;0.60;;;9.10;99.90;;;;;;4845764;29;20217;-72
2023/11/03 05:17:03;;;;;;;0.93;0.90;;;9.10;99.90;;;;;;4847584;29;20224;-74
2023/11/03 05:19:32;;;;;;;1.55;1.00;;;9.10;99.90;;;;;;4841653;29;20566;-73
2023/11/03 05:21:59;;;;;;;1.15;0.93;;;9.10;99.90;;;;;;4847183;29;20938;-73
2023/11/03 05:24:26;;;;;;;0.80;0.75;;;9.00;99.90;;;;;;4850166;29;20217;-74
2023/11/03 05:26:53;;;;;;;6.45;1.35;;;9.00;99.90;;;;;;4849512;29;20309;-74
2023/11/03 05:29:22;;;;;;;0.60;0.60;;;9.00;99.90;;;;;;4855410;29;20201;-74
2023/11/03 05:31:49;;;;;;;3.90;1.40;;;9.00;99.90;;;;;;4846801;29;20243;-73
2023/11/03 05:34:16;;;;;;;1.67;0.85;;;9.00;99.90;;;;;;4846545;29;20593;-73
2023/11/03 05:36:44;;;;;;;4.15;1.15;;;9.00;99.90;;;;;;4844117;29;20727;-74
2023/11/03 05:39:12;;;;;;;0.95;0.60;;;8.90;99.90;;;;;;4848497;29;20238;-73
2023/11/03 05:41:39;;;;;;;0.40;0.40;;;8.90;99.90;;;;;;4842862;29;20235;-73
2023/11/03 05:44:06;;;;;;;0.93;0.82;;;8.80;99.90;;;;;;4849582;29;20224;-72
2023/11/03 05:46:32;;;;;;;1.55;0.80;;;8.80;99.90;;;;;;4843764;29;21723;-73
2023/11/03 05:48:59;;;;;;;1.40;1.02;;;8.80;99.90;;;;;;4841536;29;20244;-71
2023/11/03 05:51:26;;;;;;;1.08;0.80;;;8.80;99.90;;;;;;4845298;29;20706;-73
2023/11/03 05:53:54;;;;;;;8.35;1.02;;;8.80;99.90;;;;;;4840554;29;20209;-73
2023/11/03 05:56:21;;;;;;;1.90;0.70;;;8.80;99.90;;;;;;4840470;29;20213;-73
2023/11/03 05:58:48;;;;;;;1.17;0.80;;;8.80;99.90;;;;;;4837474;29;20210;-73
2023/11/03 06:01:15;;;;;;;1.40;1.15;;;8.80;99.90;;;;;;4837354;29;20237;-72
2023/11/03 06:03:41;;;;;;;2.03;1.40;;;8.80;99.90;;;;;;4837504;29;20213;-72
2023/11/03 06:06:09;;;;;;;1.58;0.90;;;8.80;99.90;;;;;;4841177;29;20385;-74
2023/11/03 06:08:36;;;;;;;0.88;0.80;;;8.80;99.90;;;;;;4839913;29;20240;-71
2023/11/03 06:11:04;;;;;;;1.30;1.23;;;8.80;99.90;;;;;;4839872;29;20244;-72
2023/11/03 06:13:31;;;;;;;1.30;0.80;;;8.80;99.90;;;;;;4838432;29;20224;-72
2023/11/03 06:15:58;;;;;;;1.05;1.05;;;8.80;99.90;;;;;;4839316;29;20218;-72
2023/11/03 06:18:25;;;;;;;2.05;0.90;;;8.80;99.90;;;;;;4834936;29;20662;-72
2023/11/03 06:20:52;;;;;;;1.83;1.15;;;8.80;99.90;;;;;;4838448;29;20230;-73
2023/11/03 06:23:18;;;;;;;1.08;1.02;;;8.80;99.90;;;;;;4834354;29;20217;-74
2023/11/03 06:25:45;;;;;;;1.85;1.00;;;8.80;99.90;;;;;;4833170;29;20210;-73
2023/11/03 06:28:13;;;;;;;1.75;1.55;;;8.80;99.90;;;;;;4835412;29;20244;-74
2023/11/03 06:30:40;;;;;;;3.90;0.90;;;8.80;99.90;;;;;;4830780;29;20237;-73
2023/11/03 06:33:07;;;;;;;1.38;1.05;;;8.80;99.90;;;;;;4836286;29;20221;-73
2023/11/03 06:35:34;;;;;;;0.95;0.95;;;8.80;99.90;;;;;;4836953;29;20285;-74
2023/11/03 06:38:00;;;;;;;3.25;1.05;;;8.90;99.90;;;;;;4836441;29;20761;-73
2023/11/03 06:40:28;;;;;;;1.65;0.73;;;8.90;99.90;;;;;;4837733;29;20209;-74
2023/11/03 06:42:55;;;;;;;2.75;0.95;;;8.90;99.90;;;;;;4834124;29;20222;-73
2023/11/03 06:45:23;;;;;;;3.45;1.67;;;8.90;99.90;;;;;;4833803;29;20213;-73
2023/11/03 06:47:50;;;;;;;1.63;0.93;;;9.00;99.90;;;;;;4836888;29;20609;-74
2023/11/03 06:50:17;;;;;;;1.05;1.00;;;9.00;99.90;;;;;;4835380;29;20209;-74
2023/11/03 06:52:43;;;;;;;1.20;1.13;;;9.00;99.90;;;;;;4837714;29;20209;-73
2023/11/03 06:55:11;;;;;;;0.93;0.80;;;9.10;99.90;;;;;;4834358;29;20233;-72
2023/11/03 06:57:39;;;;;;;0.88;0.57;;;9.10;99.90;;;;;;4833782;29;20615;-74
2023/11/03 07:00:09;;;;;;;1.75;0.80;;;9.10;99.90;;;;;;4832941;29;20563;-72
2023/11/03 07:02:38;;;;;;;0.85;0.85;;;9.20;99.90;;;;;;4833367;29;20591;-73
2023/11/03 07:05:06;;;;;;;1.65;1.00;;;9.30;99.90;;;;;;4834493;29;20641;-72
2023/11/03 07:07:34;;;;;;;1.05;0.82;;;9.30;99.90;;;;;;4838135;29;20615;-74
2023/11/03 07:10:02;;;;;;;1.55;0.50;;;9.30;99.90;;;;;;4836599;29;20666;-74
2023/11/03 07:12:29;;;;;;;0.60;0.52;;;9.40;99.90;;;;;;4837927;29;20233;-73
2023/11/03 07:14:56;;;;;;;3.35;1.20;;;9.40;99.90;;;;;;4834746;29;20248;-74
2023/11/03 07:17:23;;;;;;;1.08;0.98;;;9.50;99.90;;;;;;4832209;29;20258;-73
2023/11/03 07:19:51;;;;;;;5.90;2.85;;;9.40;99.90;;;;;;4835600;29;20238;-73
2023/11/03 07:22:22;;;;;;;7.20;4.18;;;9.50;99.90;;;;;;4871056;23;20252;-71
2023/11/03 07:24:49;;;;;;;25.80;11.70;;;9.50;99.90;;;;;;4852211;29;20222;-71
2023/11/03 07:27:16;;;;;;;10.25;6.35;;;9.50;99.90;;;;;;4851428;29;20221;-71
2023/11/03 07:29:43;;;;;;;1.80;1.20;;;9.50;99.90;;;;;;4854521;29;20610;-72
2023/11/03 07:32:10;;;;;;;12.60;6.63;;;9.50;99.90;;;;;;4855769;29;20265;-72
2023/11/03 07:34:37;;;;;;;12.73;6.47;;;9.50;99.90;;;;;;4857164;29;20253;-72
2023/11/03 07:37:06;;;;;;;25.65;12.95;;;9.60;99.90;;;;;;4856058;29;20227;-72
2023/11/03 07:39:34;;;;;;;16.80;8.13;;;9.60;99.90;;;;;;4856693;29;20211;-72
2023/11/03 07:42:00;;;;;;;33.15;15.40;;;9.60;99.90;;;;;;4854458;29;20265;-72
2023/11/03 07:44:27;;;;;;;9.48;5.22;;;9.60;99.90;;;;;;4852953;29;20234;-71
2023/11/03 07:46:54;;;;;;;23.08;12.90;;;9.70;99.90;;;;;;4859173;29;20705;-71
2023/11/03 07:49:22;;;;;;;23.38;11.70;;;9.70;99.90;;;;;;4851276;29;20260;-72
2023/11/03 07:51:48;;;;;;;17.27;8.85;;;9.70;99.90;;;;;;4855930;29;20238;-72
2023/11/03 07:54:19;;;;;;;15.95;9.05;;;9.70;99.90;;;;;;4856326;29;20220;-72
2023/11/03 07:56:45;;;;;;;14.95;8.25;;;9.80;99.90;;;;;;4851046;29;20321;-72
2023/11/03 07:59:12;;;;;;;36.80;16.05;;;9.80;99.90;;;;;;4855311;29;20297;-72
2023/11/03 08:01:40;;;;;;;4.70;2.80;;;9.90;99.90;;;;;;4852985;29;20642;-72
2023/11/03 08:04:07;;;;;;;22.23;11.82;;;9.90;99.90;;;;;;4856736;29;20632;-71
2023/11/03 08:06:34;;;;;;;7.10;4.10;;;9.90;99.90;;;;;;4858690;29;20211;-72
2023/11/03 08:09:00;;;;;;;24.55;11.82;;;10.00;99.90;;;;;;4853166;29;20233;-72
2023/11/03 08:11:28;;;;;;;15.90;7.78;;;10.10;99.90;;;;;;4853435;29;20231;-72
2023/11/03 08:13:55;;;;;;;40.58;18.85;;;10.10;99.90;;;;;;4854216;29;20229;-72
2023/11/03 08:16:22;;;;;;;8.45;4.32;;;10.20;99.90;;;;;;4854530;29;20207;-72
2023/11/03 08:18:51;;;;;;;6.25;3.83;;;10.20;99.90;;;;;;4854218;29;20298;-72
2023/11/03 08:21:18;;;;;;;16.80;9.50;;;10.30;99.90;;;;;;4848008;29;20236;-72
2023/11/03 08:23:45;;;;;;;17.67;7.93;;;10.40;99.90;;;;;;4851770;29;20212;-72
2023/11/03 08:26:16;;;;;;;11.50;5.50;;;10.40;99.90;;;;;;4852419;29;20840;-72
2023/11/03 08:28:45;;;;;;;3.75;2.33;;;10.50;99.90;;;;;;4854316;29;20232;-72
2023/11/03 08:31:14;;;;;;;14.93;10.02;;;10.50;99.90;;;;;;4850809;29;20252;-72
2023/11/03 08:33:40;;;;;;;9.35;4.75;;;10.60;99.90;;;;;;4852313;29;20272;-72
2023/11/03 08:36:07;;;;;;;26.38;12.57;;;10.70;99.90;;;;;;4854412;29;20862;-72
2023/11/03 08:38:36;;;;;;;19.10;11.68;;;10.70;99.90;;;;;;4855405;29;20218;-72
2023/11/03 08:41:03;;;;;;;2.70;2.50;;;10.80;99.90;;;;;;4853982;29;20244;-72
2023/11/03 08:43:30;;;;;;;6.13;4.85;;;10.90;99.90;;;;;;4856498;29;20212;-73
2023/11/03 08:45:58;;;;;;;3.60;3.30;;;10.90;99.90;;;;;;4855838;29;20702;-72
2023/11/03 08:48:25;;;;;;;5.07;4.63;;;11.00;99.90;;;;;;4855475;29;20231;-72
2023/11/03 08:50:52;;;;;;;3.58;2.97;;;11.00;99.90;;;;;;4854941;29;20641;-72
2023/11/03 08:53:23;;;;;;;1.90;1.90;;;11.10;99.90;;;;;;4855526;29;20248;-73
2023/11/03 08:55:50;;;;;;;3.55;3.25;;;11.10;99.90;;;;;;4855409;29;20596;-72
2023/11/03 08:58:17;;;;;;;2.70;1.50;;;11.10;99.90;;;;;;4853192;29;20294;-72
2023/11/03 09:00:45;;;;;;;1.20;1.10;;;11.20;99.90;;;;;;4854302;29;20208;-72
2023/11/03 09:03:13;;;;;;;3.42;2.55;;;11.20;99.90;;;;;;4853276;29;20437;-72
2023/11/03 09:05:40;;;;;;;5.50;3.20;;;11.30;99.90;;;;;;4854654;29;20307;-72
2023/11/03 09:08:07;;;;;;;1.73;1.35;;;11.40;99.90;;;;;;4853619;29;21019;-72
2023/11/03 09:10:34;;;;;;;1.90;0.90;;;11.40;99.90;;;;;;4856476;29;20220;-72
2023/11/03 09:13:01;;;;;;;2.40;1.60;;;11.40;99.90;;;;;;4855580;29;20487;-72
2023/11/03 09:15:29;;;;;;;1.67;1.60;;;11.50;99.90;;;;;;4857546;29;20560;-72
2023/11/03 09:17:56;;;;;;;1.10;1.03;;;11.50;99.90;;;;;;4858648;29;20477;-72
2023/11/03 09:20:25;;;;;;;1.50;1.50;;;11.60;99.90;;;;;;4857388;29;20846;-72
2023/11/03 09:22:52;;;;;;;2.10;2.00;;;11.60;99.90;;;;;;4858398;29;20512;-72
2023/11/03 09:25:19;;;;;;;4.43;1.83;;;11.60;99.90;;;;;;4858462;29;20483;-72
2023/11/03 09:27:47;;;;;;;3.47;2.00;;;11.60;99.90;;;;;;4857951;29;20851;-72
2023/11/03 09:30:15;;;;;;;1.47;1.37;;;11.60;99.90;;;;;;4854950;29;20841;-73
2023/11/03 09:32:42;;;;;;;1.60;1.50;;;11.70;99.90;;;;;;4858437;29;20500;-74
2023/11/03 09:35:10;;;;;;;7.00;2.40;;;11.80;99.90;;;;;;4858482;29;20487;-73
2023/11/03 09:37:38;;;;;;;0.90;0.80;;;11.70;99.90;;;;;;4860588;29;20985;-73
2023/11/03 09:40:06;;;;;;;1.70;1.60;;;11.70;99.90;;;;;;4859588;29;20924;-73
2023/11/03 09:42:34;;;;;;;1.50;1.40;;;11.70;99.90;;;;;;4858745;29;20588;-74
2023/11/03 09:45:04;;;;;;;1.20;1.20;;;11.70;99.90;;;;;;4853600;29;20470;-71
2023/11/03 09:47:31;;;;;;;3.47;2.20;;;11.70;99.90;;;;;;4857150;29;20544;-72
2023/11/03 09:49:58;;;;;;;2.50;1.87;;;11.70;99.90;;;;;;4853120;29;20511;-72
2023/11/03 09:52:27;;;;;;;2.03;1.63;;;11.70;99.90;;;;;;4856816;29;20523;-72
2023/11/03 09:54:56;;;;;;;2.27;1.07;;;11.70;99.90;;;;;;4857528;29;20213;-72
2023/11/03 09:57:23;;;;;;;2.00;0.90;;;11.70;99.90;;;;;;4856219;29;20484;-71
2023/11/03 09:59:50;;;;;;;0.97;0.97;;;11.70;99.90;;;;;;4854942;29;20504;-72
2023/11/03 10:02:19;;;;;;;1.23;1.13;;;11.80;99.90;;;;;;4858053;29;20493;-72
2023/11/03 10:04:46;;;;;;;1.38;1.27;;;11.80;99.90;;;;;;4856937;29;20836;-72
2023/11/03 10:07:14;;;;;;;0.87;0.87;;;11.80;99.90;;;;;;4856586;29;20329;-72
2023/11/03 10:09:43;;;;;;;2.00;0.70;;;11.90;99.90;;;;;;4855751;29;20573;-72
2023/11/03 10:12:12;;;;;;;1.30;1.30;;;12.00;99.90;;;;;;4857894;29;20496;-72
2023/11/03 10:14:39;;;;;;;0.93;0.53;;;12.00;99.90;;;;;;4854961;29;20545;-71
2023/11/03 10:17:07;;;;;;;1.33;0.93;;;11.90;99.90;;;;;;4856345;29;20472;-73
2023/11/03 10:19:34;;;;;;;1.10;1.10;;;12.00;99.90;;;;;;4856070;29;20473;-73
2023/11/03 10:22:06;;;;;;;0.67;0.67;;;12.10;99.90;;;;;;4856289;29;20608;-72
2023/11/03 10:24:33;;;;;;;2.30;0.67;;;12.10;99.90;;;;;;4854854;29;20481;-72
2023/11/03 10:27:00;;;;;;;4.13;0.70;;;12.10;99.90;;;;;;4855832;29;20477;-73
2023/11/03 10:29:28;;;;;;;1.30;1.30;;;12.20;99.90;;;;;;4856149;29;21040;-72
2023/11/03 10:31:55;;;;;;;0.97;0.90;;;12.10;99.90;;;;;;4857526;29;20502;-72
2023/11/03 10:34:24;;;;;;;1.30;1.27;;;12.20;99.90;;;;;;4856793;29;20914;-72
2023/11/03 10:36:54;;;;;;;0.73;0.70;;;12.20;99.90;;;;;;4855870;29;20921;-72
2023/11/03 10:39:22;;;;;;;3.07;1.03;;;12.20;99.90;;;;;;4855687;29;20509;-73
2023/11/03 10:41:49;;;;;;;0.93;0.80;;;12.10;99.90;;;;;;4853967;29;20590;-72
2023/11/03 10:44:17;;;;;;;1.20;1.20;;;12.20;99.90;;;;;;4855231;29;20512;-72
2023/11/03 10:46:52;;;;;;;0.87;0.87;;;12.20;99.90;;;;;;4856559;29;20477;-72
2023/11/03 10:49:26;;;;;;;2.80;0.87;;;12.20;99.90;;;;;;4856434;29;20494;-72
2023/11/03 10:52:07;;;;;;;0.77;0.77;;;12.20;99.90;;;;;;4855874;29;20514;-72
2023/11/03 10:54:41;;;;;;;0.90;0.90;;;12.20;99.90;;;;;;4857601;29;20555;-72
2023/11/03 10:57:11;;;;;;;0.90;0.90;;;12.20;99.90;;;;;;4850669;29;20849;-72
2023/11/03 10:59:40;;;;;;;0.97;0.97;;;12.20;99.90;;;;;;4856303;29;20911;-72
2023/11/03 11:02:15;;;;;;;0.90;0.90;;;12.20;99.90;;;;;;4855231;29;20920;-72
2023/11/03 11:04:51;;;;;;;1.33;1.20;;;12.20;99.90;;;;;;4854619;29;21040;-72
2023/11/03 11:07:21;;;;;;;1.30;1.10;;;12.10;99.90;;;;;;4857507;29;20477;-72
2023/11/03 11:09:48;;;;;;;1.43;1.10;;;12.10;99.90;;;;;;4854393;29;20515;-72
2023/11/03 11:12:15;;;;;;;0.70;0.70;;;12.20;99.90;;;;;;4856144;29;20489;-73
2023/11/03 11:14:44;;;;;;;1.07;1.07;;;12.10;99.90;;;;;;4856557;29;20556;-72
2023/11/03 11:17:35;;;;;;;2.30;1.20;;;12.10;99.90;;;;;;4857415;29;20938;-73
2023/11/03 11:20:04;;;;;;;1.10;1.10;;;12.00;99.90;;;;;;4855983;29;20477;-72
2023/11/03 11:22:34;;;;;;;1.00;1.00;;;12.10;99.90;;;;;;4863754;29;20497;-67
2023/11/03 11:25:07;;;;;;;2.40;1.10;;;12.10;99.90;;;;;;4852889;29;20822;-68
2023/11/03 11:27:37;;;;;;;3.23;1.13;;;12.10;99.90;;;;;;4856120;29;20481;-72
2023/11/03 11:30:13;;;;;;;0.90;0.90;;;12.10;99.90;;;;;;4854509;29;20528;-72
2023/11/03 11:32:45;;;;;;;0.93;0.93;;;12.10;99.90;;;;;;4857191;29;20493;-72
2023/11/03 11:35:13;;;;;;;1.10;1.00;;;12.10;99.90;;;;;;4854329;29;20855;-73
2023/11/03 11:37:39;;;;;;;3.13;1.30;;;12.20;99.90;;;;;;4851336;29;20469;-73
2023/11/03 11:40:09;;;;;;;1.10;1.10;;;12.20;99.90;;;;;;4843025;29;21182;-73
2023/11/03 11:42:42;;;;;;;1.23;1.23;;;12.30;99.90;;;;;;4848340;29;20986;-73
2023/11/03 11:45:11;;;;;;;1.47;1.30;;;12.30;99.90;;;;;;4845985;29;20987;-73
2023/11/03 11:47:43;;;;;;;1.80;0.77;;;12.40;99.90;;;;;;4855958;29;20481;-72
2023/11/03 11:50:11;;;;;;;1.50;1.23;;;12.40;99.90;;;;;;4853936;29;20862;-73
2023/11/03 11:52:39;;;;;;;1.30;1.30;;;12.40;99.90;;;;;;4857162;29;20568;-73
2023/11/03 11:55:09;;;;;;;1.10;1.10;;;12.40;99.90;;;;;;4855809;29;20531;-73
2023/11/03 11:57:40;;;;;;;4.47;1.37;;;12.40;99.90;;;;;;4849687;29;20461;-72
2023/11/03 12:00:10;;;;;;;1.20;1.10;;;12.40;99.90;;;;;;4852991;29;20962;-73
2023/11/03 12:02:37;;;;;;;1.57;1.40;;;12.40;99.90;;;;;;4850760;29;20581;-72
2023/11/03 12:05:06;;;;;;;2.97;1.73;;;12.50;99.90;;;;;;4850801;29;20580;-72
2023/11/03 12:07:34;;;;;;;4.30;1.70;;;12.50;99.90;;;;;;4854171;29;20533;-72
2023/11/03 12:10:01;;;;;;;3.03;1.50;;;12.50;99.90;;;;;;4855620;29;21032;-73
2023/11/03 12:12:28;;;;;;;1.57;1.57;;;12.40;99.90;;;;;;4853914;29;20501;-72
2023/11/03 12:14:55;;;;;;;1.60;1.50;;;12.40;99.90;;;;;;4856342;29;20533;-72
2023/11/03 12:17:22;;;;;;;1.23;1.23;;;12.40;99.90;;;;;;4854235;29;20504;-72
2023/11/03 12:19:49;;;;;;;2.13;1.40;;;12.50;99.90;;;;;;4855253;29;20485;-72
2023/11/03 12:22:21;;;;;;;1.30;1.30;;;12.50;99.90;;;;;;4855355;29;20506;-72
2023/11/03 12:24:48;;;;;;;1.20;1.10;;;12.60;99.90;;;;;;4853405;29;20488;-72
2023/11/03 12:27:16;;;;;;;1.43;1.33;;;12.60;99.90;;;;;;4854049;29;20477;-71
2023/11/03 12:29:44;;;;;;;1.63;1.53;;;12.60;99.90;;;;;;4855558;29;21079;-72
2023/11/03 12:32:12;;;;;;;1.17;1.17;;;12.60;99.90;;;;;;4853336;29;20501;-72
2023/11/03 12:34:41;;;;;;;1.53;1.43;;;12.60;99.90;;;;;;4852587;29;20500;-72
2023/11/03 12:37:09;;;;;;;1.60;1.53;;;12.60;99.90;;;;;;4855128;29;20484;-72
2023/11/03 12:39:49;;;;;;;5.27;1.40;;;12.60;99.90;;;;;;4854635;29;20469;-72
2023/11/03 12:42:15;;;;;;;1.83;1.57;;;12.60;99.90;;;;;;4853914;29;20493;-72
2023/11/03 12:44:51;;;;;;;1.17;1.10;;;12.60;99.90;;;;;;4854875;29;20851;-72
2023/11/03 12:47:41;;;;;;;2.30;1.30;;;12.60;99.90;;;;;;4857352;29;20506;-73
2023/11/03 12:50:17;;;;;;;1.30;1.30;;;12.50;99.90;;;;;;4859293;29;20497;-73
2023/11/03 12:52:49;;;;;;;1.43;1.33;;;12.40;99.90;;;;;;4856773;29;20496;-73
2023/11/03 12:55:21;;;;;;;3.87;1.37;;;12.40;99.90;;;;;;4864424;29;20477;-73
2023/11/03 12:57:47;;;;;;;2.97;1.73;;;12.40;99.90;;;;;;4861231;29;20476;-73
2023/11/03 13:00:16;;;;;;;1.10;1.10;;;12.40;99.90;;;;;;4854452;29;20477;-73
2023/11/03 13:02:43;;;;;;;6.27;1.47;;;12.30;99.90;;;;;;4857058;29;20497;-73
2023/11/03 13:05:11;;;;;;;2.10;1.20;;;12.40;99.90;;;;;;4859586;29;20790;-72
2023/11/03 13:07:38;;;;;;;1.70;1.33;;;12.30;99.90;;;;;;4858858;29;20502;-72
2023/11/03 13:10:06;;;;;;;1.40;1.40;;;12.40;99.90;;;;;;4863785;29;20505;-74
2023/11/03 13:12:35;;;;;;;1.83;1.60;;;12.40;99.90;;;;;;4859242;29;20492;-73
2023/11/03 13:15:02;;;;;;;1.47;1.37;;;12.40;99.90;;;;;;4857910;29;20544;-72
2023/11/03 13:17:29;;;;;;;5.43;1.77;;;12.40;99.90;;;;;;4859489;29;20471;-71
2023/11/03 13:19:55;;;;;;;1.33;1.33;;;12.30;99.90;;;;;;4855743;29;20492;-72
2023/11/03 13:22:22;;;;;;;5.33;1.57;;;12.30;99.90;;;;;;4860912;23;20520;-72
2023/11/03 13:24:49;;;;;;;1.83;1.70;;;12.40;99.90;;;;;;4840657;29;20555;-71
2023/11/03 13:27:16;;;;;;;3.17;1.60;;;12.30;99.90;;;;;;4841438;29;20481;-72
2023/11/03 13:29:44;;;;;;;1.40;1.30;;;12.40;99.90;;;;;;4843242;29;20608;-72
2023/11/03 13:32:13;;;;;;;5.97;1.80;;;12.40;99.90;;;;;;4839481;29;20976;-70
2023/11/03 13:34:40;;;;;;;4.07;1.97;;;12.40;99.90;;;;;;4840460;29;20485;-71
2023/11/03 13:37:09;;;;;;;1.80;1.70;;;12.40;99.90;;;;;;4838685;29;20522;-71
2023/11/03 13:39:36;;;;;;;2.57;1.80;;;12.40;99.90;;;;;;4839594;29;21006;-72
2023/11/03 13:42:03;;;;;;;2.80;1.63;;;12.40;99.90;;;;;;4841732;29;20510;-71
2023/11/03 13:44:31;;;;;;;1.50;1.50;;;12.40;99.90;;;;;;4847076;29;20485;-72
2023/11/03 13:46:59;;;;;;;3.17;1.80;;;12.50;99.90;;;;;;4834449;29;20474;-72
2023/11/03 13:49:26;;;;;;;2.00;1.67;;;12.40;99.90;;;;;;4839155;29;20473;-73
2023/11/03 13:51:53;;;;;;;3.90;1.83;;;12.40;99.90;;;;;;4845539;29;20509;-71
2023/11/03 13:54:20;;;;;;;3.30;1.50;;;12.50;99.90;;;;;;4838439;29;20589;-72
2023/11/03 13:56:47;;;;;;;1.80;1.70;;;12.50;99.90;;;;;;4840851;29;20475;-72
2023/11/03 13:59:14;;;;;;;2.03;1.93;;;12.50;99.90;;;;;;4839109;29;20478;-72
2023/11/03 14:01:41;;;;;;;1.90;1.90;;;12.50;99.90;;;;;;4839556;29;20839;-71
2023/11/03 14:04:13;;;;;;;3.67;1.70;;;12.50;99.90;;;;;;4839276;29;20508;-71
2023/11/03 14:06:40;;;;;;;2.83;1.27;;;12.50;99.90;;;;;;4847618;29;20579;-72
2023/11/03 14:09:07;;;;;;;3.90;1.83;;;12.50;99.90;;;;;;4844986;29;20555;-72
2023/11/03 14:11:35;;;;;;;1.97;1.87;;;12.50;99.90;;;;;;4837122;29;20505;-72
2023/11/03 14:14:02;;;;;;;2.27;1.43;;;12.50;99.90;;;;;;4838759;29;20612;-72
2023/11/03 14:16:28;;;;;;;3.27;2.00;;;12.50;99.90;;;;;;4839235;29;20474;-72
2023/11/03 14:18:55;;;;;;;1.80;1.70;;;12.50;99.90;;;;;;4840702;29;20488;-73
2023/11/03 14:21:26;;;;;;;2.00;1.47;;;12.40;99.90;;;;;;4839512;29;21241;-72
2023/11/03 14:23:53;;;;;;;3.20;2.03;;;12.30;99.90;;;;;;4840221;29;21008;-72
2023/11/03 14:26:20;;;;;;;4.17;2.50;;;12.20;99.90;;;;;;4839241;29;20488;-71
2023/11/03 14:28:47;;;;;;;1.63;1.63;;;12.10;99.90;;;;;;4835097;29;20897;-73
2023/11/03 14:31:13;;;;;;;4.87;2.00;;;12.00;99.90;;;;;;4846628;29;21247;-72
2023/11/03 14:33:40;;;;;;;1.53;1.53;;;11.90;99.90;;;;;;4839063;29;20475;-72
2023/11/03 14:36:08;;;;;;;2.40;1.70;;;11.90;99.90;;;;;;4838000;29;20963;-72
2023/11/03 14:38:36;;;;;;;2.67;2.43;;;11.80;99.90;;;;;;4855431;29;20580;-72
2023/11/03 14:41:03;;;;;;;2.20;2.10;;;11.80;99.90;;;;;;4847331;29;20848;-73
2023/11/03 14:43:30;;;;;;;4.03;2.10;;;11.70;99.90;;;;;;4844478;29;20485;-73
2023/11/03 14:45:57;;;;;;;2.53;1.90;;;11.70;99.90;;;;;;4844233;29;20538;-73
2023/11/03 14:48:24;;;;;;;7.03;2.63;;;11.60;99.90;;;;;;4839036;29;20534;-73
2023/11/03 14:50:51;;;;;;;1.77;1.77;;;11.50;99.90;;;;;;4842375;29;20950;-73
2023/11/03 14:53:18;;;;;;;2.25;1.65;;;11.50;99.90;;;;;;4841916;29;21108;-74
2023/11/03 14:55:46;;;;;;;2.60;2.10;;;11.50;99.90;;;;;;4844759;29;20299;-73
2023/11/03 14:58:12;;;;;;;4.90;1.88;;;11.50;99.90;;;;;;4850885;29;20218;-73
2023/11/03 15:00:44;;;;;;;1.80;1.70;;;11.50;99.90;;;;;;4841259;29;20630;-73
2023/11/03 15:03:11;;;;;;;3.75;2.08;;;11.50;99.90;;;;;;4849798;29;20238;-73
2023/11/03 15:05:38;;;;;;;5.07;3.00;;;11.50;99.90;;;;;;4837317;29;20209;-73
2023/11/03 15:08:07;;;;;;;2.22;2.10;;;11.50;99.90;;;;;;4834390;29;20746;-73
2023/11/03 15:10:35;;;;;;;2.78;2.40;;;11.50;99.90;;;;;;4837024;29;20272;-73
2023/11/03 15:13:03;;;;;;;2.67;2.40;;;11.50;99.90;;;;;;4847398;29;20238;-73
2023/11/03 15:15:32;;;;;;;2.72;2.40;;;11.40;99.90;;;;;;4844667;29;20247;-73
2023/11/03 15:17:59;;;;;;;3.10;2.70;;;11.40;99.90;;;;;;4835617;29;20227;-73
2023/11/03 15:20:26;;;;;;;2.40;2.20;;;11.30;99.90;;;;;;4839290;29;20220;-73
2023/11/03 15:22:54;;;;;;;2.28;2.17;;;11.20;99.90;;;;;;4847274;29;20251;-73
2023/11/03 15:25:21;;;;;;;2.45;2.35;;;11.20;99.90;;;;;;4834047;29;20221;-73
2023/11/03 15:27:49;;;;;;;5.07;2.80;;;11.20;99.90;;;;;;4835180;29;20728;-73
2023/11/03 15:30:19;;;;;;;2.83;2.15;;;11.10;99.90;;;;;;4844097;29;20220;-73
2023/11/03 15:32:47;;;;;;;1.95;1.95;;;11.10;99.90;;;;;;4843997;29;20246;-72
2023/11/03 15:35:15;;;;;;;2.30;2.10;;;11.10;99.90;;;;;;4841163;29;20211;-72
2023/11/03 15:37:43;;;;;;;2.17;2.08;;;11.10;99.90;;;;;;4837781;29;20207;-72
2023/11/03 15:40:14;;;;;;;4.38;2.50;;;11.00;99.90;;;;;;4848624;29;20219;-73
2023/11/03 15:42:41;;;;;;;3.45;2.35;;;11.00;99.90;;;;;;4846608;29;20297;-72
2023/11/03 15:45:11;;;;;;;6.57;2.70;;;11.00;99.90;;;;;;4840984;29;20242;-73
2023/11/03 15:47:39;;;;;;;2.83;2.63;;;11.00;99.90;;;;;;4836583;29;20216;-74
2023/11/03 15:50:11;;;;;;;2.50;2.40;;;10.90;99.90;;;;;;4838808;29;20220;-73
2023/11/03 15:52:38;;;;;;;2.47;2.20;;;11.00;99.90;;;;;;4845207;29;20229;-73
2023/11/03 15:55:07;;;;;;;2.97;2.80;;;10.90;99.90;;;;;;4846935;29;20335;-73
2023/11/03 15:57:34;;;;;;;3.60;3.03;;;10.90;99.90;;;;;;4841132;29;20216;-74
2023/11/03 16:00:01;;;;;;;3.13;2.92;;;10.80;99.90;;;;;;4834332;29;20260;-73
2023/11/03 16:02:28;;;;;;;4.10;3.13;;;10.80;99.90;;;;;;4838176;29;20224;-74
2023/11/03 16:04:56;;;;;;;4.72;2.75;;;10.80;99.90;;;;;;4843684;29;20675;-74
2023/11/03 16:07:22;;;;;;;6.10;2.60;;;10.80;99.90;;;;;;4837994;29;20232;-74
2023/11/03 16:09:50;;;;;;;3.15;2.75;;;10.80;99.90;;;;;;4840040;29;20238;-74
2023/11/03 16:12:17;;;;;;;3.83;3.20;;;10.70;99.90;;;;;;4843992;29;20322;-73
2023/11/03 16:14:44;;;;;;;3.80;2.67;;;10.70;99.90;;;;;;4838010;29;20235;-75
2023/11/03 16:17:12;;;;;;;5.38;2.67;;;10.70;99.90;;;;;;4835018;29;20223;-74
2023/11/03 16:19:39;;;;;;;5.70;3.35;;;10.60;99.90;;;;;;4834528;29;20218;-74
2023/11/03 16:22:07;;;;;;;3.47;3.17;;;10.60;99.90;;;;;;4841189;29;20239;-74
2023/11/03 16:24:34;;;;;;;5.63;3.40;;;10.50;99.90;;;;;;4845104;29;20274;-73
2023/11/03 16:27:01;;;;;;;4.63;3.15;;;10.50;99.90;;;;;;4844554;29;20684;-73
2023/11/03 16:29:28;;;;;;;3.55;3.35;;;10.50;99.90;;;;;;4842709;29;20213;-73
2023/11/03 16:31:54;;;;;;;3.97;3.47;;;10.40;99.90;;;;;;4838389;29;20270;-74
2023/11/03 16:34:21;;;;;;;5.35;3.22;;;10.30;99.90;;;;;;4837824;29;20206;-75
2023/11/03 16:36:48;;;;;;;6.78;3.03;;;10.30;99.90;;;;;;4843226;29;20222;-75
2023/11/03 16:39:16;;;;;;;4.57;2.58;;;10.20;99.90;;;;;;4838353;29;20206;-74
2023/11/03 16:41:43;;;;;;;3.40;3.05;;;10.20;99.90;;;;;;4847221;29;20226;-75
2023/11/03 16:44:10;;;;;;;3.63;3.33;;;10.20;99.90;;;;;;4841596;29;20213;-75
2023/11/03 16:46:37;;;;;;;2.63;2.40;;;10.10;99.90;;;;;;4837201;29;20219;-74
2023/11/03 16:49:04;;;;;;;2.30;2.20;;;10.10;99.90;;;;;;4843163;29;20298;-72
2023/11/03 16:51:31;;;;;;;2.88;2.78;;;10.00;99.90;;;;;;4845146;29;20245;-72
2023/11/03 16:53:58;;;;;;;3.15;2.90;;;10.00;99.90;;;;;;4838875;29;20665;-72
2023/11/03 16:56:27;;;;;;;4.00;3.15;;;10.00;99.90;;;;;;4845606;29;20214;-72
2023/11/03 16:58:54;;;;;;;3.63;2.55;;;10.00;99.90;;;;;;4843731;29;20238;-72
2023/11/03 17:01:21;;;;;;;5.90;3.20;;;10.00;99.90;;;;;;4837630;29;20231;-73
2023/11/03 17:03:47;;;;;;;3.90;2.40;;;10.00;99.90;;;;;;4838178;29;20206;-72
2023/11/03 17:06:15;;;;;;;3.60;2.92;;;9.90;99.90;;;;;;4839206;29;20218;-71
2023/11/03 17:08:42;;;;;;;2.50;2.45;;;9.90;99.90;;;;;;4838500;29;20297;-72
2023/11/03 17:11:09;;;;;;;3.83;2.42;;;9.90;99.90;;;;;;4832205;29;20228;-72
2023/11/03 17:13:37;;;;;;;3.78;2.45;;;9.90;99.90;;;;;;4831245;29;20216;-72
2023/11/03 17:16:04;;;;;;;3.28;3.08;;;9.90;99.90;;;;;;4837060;29;20310;-73
2023/11/03 17:18:32;;;;;;;4.20;2.50;;;9.90;99.90;;;;;;4841369;29;20229;-72
2023/11/03 17:20:59;;;;;;;2.58;2.47;;;9.90;99.90;;;;;;4838652;29;20204;-73
2023/11/03 17:23:25;;;;;;;4.82;2.70;;;9.90;99.90;;;;;;4835485;29;20206;-73
2023/11/03 17:25:52;;;;;;;2.50;2.25;;;9.90;99.90;;;;;;4832826;29;20234;-73
2023/11/03 17:28:22;;;;;;;2.42;2.20;;;9.80;99.90;;;;;;4835806;29;20217;-73
2023/11/03 17:30:50;;;;;;;2.63;2.50;;;9.90;99.90;;;;;;4844136;29;20218;-73
2023/11/03 17:33:17;;;;;;;5.85;2.90;;;9.80;99.90;;;;;;4839988;29;20222;-73
2023/11/03 17:35:44;;;;;;;3.78;2.70;;;9.80;99.90;;;;;;4844380;29;20215;-72
2023/11/03 17:38:11;;;;;;;5.70;3.78;;;9.90;99.90;;;;;;4840743;29;20325;-72
2023/11/03 17:40:37;;;;;;;10.52;3.20;;;9.90;99.90;;;;;;4835358;29;20212;-74
2023/11/03 17:43:04;;;;;;;2.60;2.40;;;9.90;99.90;;;;;;4843626;29;20243;-73
2023/11/03 17:45:31;;;;;;;4.78;2.58;;;9.90;99.90;;;;;;4840623;29;20677;-74
2023/11/03 17:47:59;;;;;;;4.90;2.95;;;9.90;99.90;;;;;;4838959;29;20601;-72
2023/11/03 17:50:28;;;;;;;3.05;2.75;;;9.90;99.90;;;;;;4837778;29;20227;-74
2023/11/03 17:52:54;;;;;;;12.07;3.05;;;9.80;99.90;;;;;;4846821;29;20301;-75